Time;durP1;ratioP1;P1;durP2;ratioP2;P2;SDS_P1;SDS_P2;PMS_P1;PMS_P2;Temp;Humidity;BMP_temperature;BMP_pressure;BME280_temperature;BME280_humidity;BME280_pressure;Samples;Min_cycle;Max_cycle;Signal;HPM_P1;HPM_P2
2024/02/03 00:00:44;;;;;;;;;9.00;9.00;;;;;14.50;100.00;102683.97;2096036;28;47133;-68
2024/02/03 00:01:44;;;;;;;;;9.00;9.00;;;;;14.50;100.00;102682.16;2096262;28;46643;-69
2024/02/03 00:02:44;;;;;;;;;8.33;8.33;;;;;14.52;100.00;102682.16;2096514;28;46586;-69
2024/02/03 00:03:45;;;;;;;;;10.00;10.00;;;;;14.55;100.00;102682.13;2095637;28;46383;-69
2024/02/03 00:04:45;;;;;;;;;9.00;9.00;;;;;14.54;100.00;102685.69;2095509;28;46521;-69
2024/02/03 00:05:45;;;;;;;;;10.00;10.00;;;;;14.52;100.00;102680.38;2095885;28;46444;-70
2024/02/03 00:06:46;;;;;;;;;12.67;11.00;;;;;14.46;100.00;102684.84;2095016;28;46311;-70
2024/02/03 00:07:46;;;;;;;;;10.00;10.00;;;;;14.54;100.00;102686.59;2096048;28;46480;-70
2024/02/03 00:08:46;;;;;;;;;10.67;10.33;;;;;14.47;100.00;102673.25;2095620;28;46709;-70
2024/02/03 00:09:47;;;;;;;;;11.00;10.67;;;;;14.59;100.00;102686.53;2095566;28;46071;-70
2024/02/03 00:10:47;;;;;;;;;10.00;10.00;;;;;14.59;100.00;102679.41;2096338;28;46375;-70
2024/02/03 00:11:48;;;;;;;;;12.00;11.33;;;;;14.49;100.00;102677.72;2085499;28;45889;-70
2024/02/03 00:12:48;;;;;;;;;9.67;8.67;;;;;14.46;100.00;102675.06;2086645;28;46212;-69
2024/02/03 00:13:49;;;;;;;;;8.33;8.33;;;;;14.55;100.00;102682.13;2096601;28;45705;-70
2024/02/03 00:14:49;;;;;;;;;13.67;12.00;;;;;14.51;100.00;102677.72;2096024;28;46788;-69
2024/02/03 00:15:49;;;;;;;;;11.00;10.00;;;;;14.50;100.00;102675.94;2095955;28;46374;-70
2024/02/03 00:16:50;;;;;;;;;11.00;11.00;;;;;14.53;100.00;102676.78;2096413;28;45455;-70
2024/02/03 00:17:51;;;;;;;;;9.00;8.67;;;;;14.55;100.00;102675.00;2096153;28;46350;-70
2024/02/03 00:18:51;;;;;;;;;8.25;8.25;;;;;14.52;100.00;102679.47;2095898;28;46346;-70
2024/02/03 00:19:52;;;;;;;;;8.67;8.67;;;;;14.58;100.00;102674.97;2096269;28;45518;-71
2024/02/03 00:20:52;;;;;;;;;8.00;8.00;;;;;14.58;100.00;102674.97;2096059;28;46904;-71
2024/02/03 00:21:53;;;;;;;;;8.67;8.67;;;;;14.57;100.00;102675.88;2095972;28;46650;-71
2024/02/03 00:22:53;;;;;;;;;10.00;8.00;;;;;14.58;100.00;102679.44;2095724;28;46352;-70
2024/02/03 00:23:53;;;;;;;;;10.00;10.00;;;;;14.63;100.00;102675.84;2094628;28;46433;-71
2024/02/03 00:24:53;;;;;;;;;7.67;7.67;;;;;14.55;100.00;102672.31;2095848;28;46914;-70
2024/02/03 00:25:54;;;;;;;;;10.67;10.67;;;;;14.59;100.00;102673.19;2096151;28;45905;-71
2024/02/03 00:26:54;;;;;;;;;10.33;10.33;;;;;14.62;100.00;102673.19;2095540;28;46929;-71
2024/02/03 00:27:54;;;;;;;;;11.33;9.67;;;;;14.63;100.00;102674.97;2095664;28;46601;-70
2024/02/03 00:28:55;;;;;;;;;12.67;9.33;;;;;14.63;100.00;102678.50;2096159;28;46673;-70
2024/02/03 00:29:55;;;;;;;;;9.00;7.00;;;;;14.63;100.00;102664.28;2096127;28;46678;-70
2024/02/03 00:30:55;;;;;;;;;10.67;9.00;;;;;14.63;100.00;102672.28;2096147;28;46312;-69
2024/02/03 00:31:56;;;;;;;;;9.00;9.00;;;;;14.65;100.00;102667.81;2095936;28;46260;-70
2024/02/03 00:32:56;;;;;;;;;3.00;3.00;;;;;14.64;100.00;102674.94;2096387;28;45801;-70
2024/02/03 00:33:56;;;;;;;;;9.00;9.00;;;;;14.67;100.00;102671.34;2095984;28;46740;-70
2024/02/03 00:34:57;;;;;;;;;12.33;12.33;;;;;14.67;100.00;102679.38;2095850;28;46660;-70
2024/02/03 00:35:57;;;;;;;;;10.33;8.67;;;;;14.66;100.00;102670.47;2095806;28;46142;-70
2024/02/03 00:36:57;;;;;;;;;9.00;9.00;;;;;14.67;100.00;102669.56;2096156;28;46902;-70
2024/02/03 00:37:58;;;;;;;;;10.33;9.00;;;;;14.66;100.00;102675.81;2095988;28;46325;-69
2024/02/03 00:38:58;;;;;;;;;9.00;9.00;;;;;14.64;100.00;102671.38;2095970;28;46599;-70
2024/02/03 00:39:59;;;;;;;;;8.00;7.33;;;;;14.63;100.00;102665.16;2095872;28;46783;-70
2024/02/03 00:40:59;;;;;;;;;5.33;5.33;;;;;14.65;100.00;102667.81;2095966;28;46474;-70
2024/02/03 00:41:59;;;;;;;;;7.00;6.33;;;;;14.65;100.00;102675.81;2096065;28;46752;-70
2024/02/03 00:42:59;;;;;;;;;8.33;8.33;;;;;14.63;100.00;102669.63;2095492;28;46683;-69
2024/02/03 00:44:00;;;;;;;;;7.67;7.67;;;;;14.64;100.00;102674.06;2095336;28;46439;-70
2024/02/03 00:45:00;;;;;;;;;8.33;8.00;;;;;14.64;100.00;102668.72;2095769;28;46376;-70
2024/02/03 00:46:00;;;;;;;;;9.00;9.00;;;;;14.63;100.00;102662.47;2095721;28;46635;-70
2024/02/03 00:47:01;;;;;;;;;10.00;9.00;;;;;14.63;100.00;102662.47;2096097;28;46309;-69
2024/02/03 00:48:01;;;;;;;;;8.00;8.00;;;;;14.65;100.00;102654.44;2095633;28;46597;-69
2024/02/03 00:49:01;;;;;;;;;7.33;7.33;;;;;14.65;100.00;102660.69;2095790;28;45501;-69
2024/02/03 00:50:02;;;;;;;;;9.33;9.00;;;;;14.64;100.00;102664.25;2096264;28;46447;-69
2024/02/03 00:51:05;;;;;;;;;5.33;5.33;;;;;14.64;100.00;102656.25;2096125;28;46376;-69
2024/02/03 00:52:06;;;;;;;;;7.50;7.50;;;;;14.66;100.00;102658.91;2095660;28;46801;-69
2024/02/03 00:53:06;;;;;;;;;7.67;6.33;;;;;14.65;100.00;102658.00;2096076;28;46541;-70
2024/02/03 00:54:06;;;;;;;;;7.67;6.67;;;;;14.66;100.00;102662.44;2095558;28;46280;-70
2024/02/03 00:55:07;;;;;;;;;7.00;7.00;;;;;14.65;100.00;102659.78;2095831;28;45934;-71
2024/02/03 00:56:08;;;;;;;;;6.75;6.75;;;;;14.66;100.00;102654.44;2095525;28;46193;-69
2024/02/03 00:57:09;;;;;;;;;5.50;5.50;;;;;14.68;100.00;102659.75;2095969;28;46793;-70
2024/02/03 00:58:09;;;;;;;;;5.00;5.00;;;;;14.69;100.00;102651.72;2095759;28;46768;-70
2024/02/03 00:59:11;;;;;;;;;7.00;5.33;;;;;14.70;100.00;102656.16;2095643;28;46241;-70
2024/02/03 01:00:12;;;;;;;;;9.00;8.50;;;;;14.69;100.00;102653.50;2095375;28;47117;-69
2024/02/03 01:01:13;;;;;;;;;7.00;6.25;;;;;14.68;100.00;102652.63;2095681;28;47775;-70
2024/02/03 01:02:13;;;;;;;;;6.00;6.00;;;;;14.70;100.00;102652.63;2095976;28;46628;-70
2024/02/03 01:03:14;;;;;;;;;8.33;6.33;;;;;14.71;100.00;102649.03;2096047;28;46688;-69
2024/02/03 01:04:14;;;;;;;;;8.00;8.00;;;;;14.72;100.00;102648.13;2095884;28;46552;-70
2024/02/03 01:05:15;;;;;;;;;5.00;5.00;;;;;14.71;100.00;102646.38;2096167;28;45805;-70
2024/02/03 01:06:15;;;;;;;;;6.00;4.00;;;;;14.70;100.00;102655.28;2095578;28;45865;-70
2024/02/03 01:07:15;;;;;;;;;8.00;6.67;;;;;14.69;100.00;102645.50;2095969;28;46844;-70
2024/02/03 01:08:15;;;;;;;;;5.33;5.33;;;;;14.67;100.00;102637.50;2095716;28;46180;-70
2024/02/03 01:09:17;;;;;;;;;8.00;7.00;;;;;14.67;100.00;102649.97;2096029;28;45737;-70
2024/02/03 01:10:17;;;;;;;;;6.75;6.75;;;;;14.68;100.00;102635.72;2095858;28;46191;-70
2024/02/03 01:11:18;;;;;;;;;7.00;7.00;;;;;14.69;100.00;102643.72;2096012;28;46449;-69
2024/02/03 01:12:18;;;;;;;;;6.00;6.00;;;;;14.71;100.00;102639.22;2094292;28;46004;-70
2024/02/03 01:13:18;;;;;;;;;7.33;7.33;;;;;14.76;100.00;102646.34;2095690;28;46080;-69
2024/02/03 01:14:19;;;;;;;;;5.00;5.00;;;;;14.72;100.00;102645.47;2095842;28;46557;-70
2024/02/03 01:15:19;;;;;;;;;6.33;6.33;;;;;14.71;100.00;102639.22;2095964;28;46894;-70
2024/02/03 01:16:21;;;;;;;;;6.00;6.00;;;;;14.75;100.00;102644.59;2095765;28;46378;-70
2024/02/03 01:17:21;;;;;;;;;5.00;5.00;;;;;14.74;100.00;102635.69;2095134;28;46486;-69
2024/02/03 01:18:22;;;;;;;;;6.00;6.00;;;;;14.75;100.00;102640.13;2095888;28;46381;-70
2024/02/03 01:19:22;;;;;;;;;7.00;7.00;;;;;14.76;100.00;102633.00;2095469;28;46218;-69
2024/02/03 01:20:22;;;;;;;;;4.00;4.00;;;;;14.76;100.00;102638.34;2095489;28;46806;-69
2024/02/03 01:21:22;;;;;;;;;6.00;6.00;;;;;14.75;100.00;102633.88;2095848;28;46344;-69
2024/02/03 01:22:23;;;;;;;;;6.00;5.00;;;;;14.75;100.00;102639.22;2095791;28;46447;-69
2024/02/03 01:23:23;;;;;;;;;8.67;8.67;;;;;14.72;100.00;102634.78;2095668;28;46474;-70
2024/02/03 01:24:23;;;;;;;;;7.00;6.00;;;;;14.71;100.00;102633.88;2095602;28;46672;-70
2024/02/03 01:25:24;;;;;;;;;9.00;8.33;;;;;14.73;100.00;102636.53;2095229;28;46590;-70
2024/02/03 01:26:24;;;;;;;;;6.33;5.33;;;;;14.72;100.00;102634.78;2095665;28;48127;-70
2024/02/03 01:27:24;;;;;;;;;7.00;6.00;;;;;14.70;100.00;102637.47;2095049;28;46771;-70
2024/02/03 01:28:25;;;;;;;;;6.00;6.00;;;;;14.77;100.00;102641.00;2084733;28;46607;-69
2024/02/03 01:29:25;;;;;;;;;6.33;5.33;;;;;14.75;100.00;102639.22;2094436;28;46382;-69
2024/02/03 01:30:26;;;;;;;;;4.67;4.67;;;;;14.74;100.00;102638.34;2095144;28;46456;-70
2024/02/03 01:31:26;;;;;;;;;8.00;6.33;;;;;14.73;100.00;102640.09;2095302;28;46269;-70
2024/02/03 01:32:27;;;;;;;;;5.00;5.00;;;;;14.71;100.00;102638.34;2094684;28;46479;-69
2024/02/03 01:33:28;;;;;;;;;7.33;7.33;;;;;14.73;100.00;102639.22;2093177;28;46288;-70
2024/02/03 01:34:28;;;;;;;;;8.50;8.50;;;;;14.73;100.00;102641.91;2094443;28;46459;-70
2024/02/03 01:35:30;;;;;;;;;8.00;7.00;;;;;14.75;100.00;102641.91;2095746;28;46040;-70
2024/02/03 01:36:31;;;;;;;;;5.25;5.25;;;;;14.71;100.00;102636.56;2095569;28;46841;-69
2024/02/03 01:37:31;;;;;;;;;4.00;4.00;;;;;14.71;100.00;102639.22;2095741;28;46657;-69
2024/02/03 01:38:31;;;;;;;;;6.67;6.67;;;;;14.73;100.00;102641.91;2095848;28;45257;-70
2024/02/03 01:39:32;;;;;;;;;6.00;6.00;;;;;14.73;100.00;102637.44;2095288;28;46230;-69
2024/02/03 01:40:32;;;;;;;;;6.00;6.00;;;;;14.73;100.00;102636.53;2096140;28;46043;-70
2024/02/03 01:41:33;;;;;;;;;7.67;7.67;;;;;14.75;100.00;102639.22;2095254;28;46662;-70
2024/02/03 01:42:33;;;;;;;;;7.00;6.00;;;;;14.74;100.00;102635.69;2095639;28;46449;-69
2024/02/03 01:43:33;;;;;;;;;3.33;2.00;;;;;14.75;100.00;102633.88;2095936;28;45521;-69
2024/02/03 01:44:35;;;;;;;;;9.33;9.00;;;;;14.75;100.00;102636.56;2095548;28;47073;-69
2024/02/03 01:45:35;;;;;;;;;8.75;8.75;;;;;14.79;100.00;102630.28;2095343;28;46281;-69
2024/02/03 01:46:36;;;;;;;;;7.00;6.00;;;;;14.78;100.00;102637.41;2095524;28;46576;-69
2024/02/03 01:47:37;;;;;;;;;7.50;7.25;;;;;14.77;100.00;102632.97;2095452;28;46438;-69
2024/02/03 01:48:38;;;;;;;;;9.00;7.00;;;;;14.78;100.00;102636.53;2095457;28;46711;-69
2024/02/03 01:49:39;;;;;;;;;9.00;9.00;;;;;14.81;100.00;102629.38;2095211;28;45651;-70
2024/02/03 01:50:44;;;;;;;;;8.00;7.33;;;;;14.80;100.00;102635.59;2095724;28;46422;-70
2024/02/03 01:51:45;;;;;;;;;7.50;7.50;;;;;15.15;100.00;102635.28;2094393;28;46498;-70
2024/02/03 01:52:46;;;;;;;;;8.00;8.00;;;;;15.23;100.00;102624.50;2094724;28;46126;-70
2024/02/03 01:53:47;;;;;;;;;6.25;5.75;;;;;15.28;100.00;102623.56;2095540;28;45155;-69
2024/02/03 01:54:47;;;;;;;;;8.00;7.33;;;;;15.33;100.00;102623.50;2095448;28;45785;-70
2024/02/03 01:55:49;;;;;;;;;5.67;5.67;;;;;15.36;100.00;102623.44;2095468;28;46196;-70
2024/02/03 01:56:54;;;;;;;;;7.50;6.75;;;;;15.31;100.00;102627.97;2095669;28;46829;-70
2024/02/03 01:58:00;;;;;;;;;6.00;6.00;;;;;15.40;100.00;102621.66;2094740;28;47180;-70
2024/02/03 01:59:03;;;;;;;;;6.25;6.25;;;;;15.42;100.00;102631.44;2094643;28;46724;-70
2024/02/03 02:00:05;;;;;;;;;7.00;7.00;;;;;15.46;100.00;102624.25;2095148;28;45664;-70
2024/02/03 02:01:06;;;;;;;;;9.00;7.25;;;;;15.10;100.00;102629.09;2095429;28;46545;-70
2024/02/03 02:02:06;;;;;;;;;5.75;4.75;;;;;14.98;100.00;102621.19;2095730;28;46280;-69
2024/02/03 02:03:07;;;;;;;;;6.00;6.00;;;;;14.91;100.00;102623.03;2095818;28;45498;-71
2024/02/03 02:04:07;;;;;;;;;5.33;5.00;;;;;14.92;100.00;102623.94;2095330;28;46292;-69
2024/02/03 02:05:08;;;;;;;;;6.00;6.00;;;;;14.89;100.00;102624.84;2094844;28;46039;-71
2024/02/03 02:06:09;;;;;;;;;5.00;5.00;;;;;15.06;100.00;102627.34;2095134;28;46759;-71
2024/02/03 02:07:09;;;;;;;;;8.00;8.00;;;;;14.89;100.00;102624.84;2095303;28;46555;-71
2024/02/03 02:08:09;;;;;;;;;6.67;6.33;;;;;14.87;100.00;102632.00;2095437;28;45823;-70
2024/02/03 02:09:21;;;;;;;;;7.33;7.33;;;;;14.90;100.00;102628.41;2095085;28;46835;-70
2024/02/03 02:10:21;;;;;;;;;5.50;5.00;;;;;14.90;100.00;102636.41;2095997;28;45914;-70
2024/02/03 02:11:24;;;;;;;;;9.00;5.00;;;;;14.90;100.00;102631.06;2095507;28;46278;-70
2024/02/03 02:12:24;;;;;;;;;5.25;5.25;;;;;14.88;100.00;102627.53;2094414;28;46267;-71
2024/02/03 02:13:24;;;;;;;;;7.33;7.00;;;;;14.89;100.00;102627.53;2095545;28;46716;-71
2024/02/03 02:14:25;;;;;;;;;6.00;6.00;;;;;14.90;100.00;102629.28;2095350;28;45836;-71
2024/02/03 02:15:26;;;;;;;;;7.00;7.00;;;;;14.88;100.00;102625.75;2094873;28;46924;-70
2024/02/03 02:16:29;;;;;;;;;5.00;5.00;;;;;14.89;100.00;102627.53;2095511;28;46890;-71
2024/02/03 02:17:29;;;;;;;;;5.00;5.00;;;;;14.90;100.00;102626.63;2095502;28;46690;-71
2024/02/03 02:18:29;;;;;;;;;5.00;4.00;;;;;14.92;100.00;102623.94;2096004;28;45820;-70
2024/02/03 02:19:30;;;;;;;;;5.33;5.00;;;;;14.91;100.00;102624.81;2095631;28;46340;-72
2024/02/03 02:20:30;;;;;;;;;4.00;4.00;;;;;14.90;100.00;102625.72;2094948;28;46371;-71
2024/02/03 02:21:30;;;;;;;;;5.00;5.00;;;;;14.90;100.00;102623.06;2095634;28;46880;-70
2024/02/03 02:22:31;;;;;;;;;5.00;4.00;;;;;14.92;100.00;102622.13;2095457;28;46326;-69
2024/02/03 02:23:31;;;;;;;;;4.00;4.00;;;;;14.93;100.00;102625.69;2102487;28;46648;-71
2024/02/03 02:24:31;;;;;;;;;6.00;4.67;;;;;14.91;100.00;102617.69;2103179;28;46422;-70
2024/02/03 02:25:32;;;;;;;;;6.00;6.00;;;;;14.92;100.00;102615.91;2094512;28;45683;-71
2024/02/03 02:26:32;;;;;;;;;5.00;5.00;;;;;14.91;100.00;102607.00;2095163;28;46193;-70
2024/02/03 02:27:33;;;;;;;;;4.00;3.33;;;;;14.93;100.00;102612.31;2094913;28;46327;-71
2024/02/03 02:28:33;;;;;;;;;6.00;6.00;;;;;14.94;100.00;102614.97;2094712;28;46281;-69
2024/02/03 02:29:34;;;;;;;;;4.33;4.33;;;;;14.93;100.00;102613.22;2094505;28;46753;-70
2024/02/03 02:30:34;;;;;;;;;4.00;4.00;;;;;14.91;100.00;102609.66;2091047;28;46489;-69
2024/02/03 02:31:35;;;;;;;;;6.00;4.67;;;;;14.93;100.00;102607.88;2082440;28;46951;-71
2024/02/03 02:32:35;;;;;;;;;5.00;5.00;;;;;14.90;100.00;102605.22;2094581;28;45908;-71
2024/02/03 02:33:35;;;;;;;;;5.67;4.00;;;;;14.91;100.00;102616.81;2095027;28;46199;-70
2024/02/03 02:34:38;;;;;;;;;3.33;3.33;;;;;14.93;100.00;102604.31;2095848;28;46384;-70
2024/02/03 02:35:39;;;;;;;;;5.00;5.00;;;;;14.91;100.00;102608.78;2095305;28;46444;-70
2024/02/03 02:36:39;;;;;;;;;3.33;3.33;;;;;15.01;100.00;102614.03;2094337;28;46687;-70
2024/02/03 02:37:39;;;;;;;;;7.67;4.67;;;;;15.09;100.00;102603.25;2093590;28;46412;-69
2024/02/03 02:38:40;;;;;;;;;4.67;4.00;;;;;15.11;100.00;102604.09;2095094;28;47149;-70
2024/02/03 02:39:40;;;;;;;;;4.00;4.00;;;;;15.12;100.00;102602.31;2095297;28;45158;-70
2024/02/03 02:40:40;;;;;;;;;4.33;3.00;;;;;15.14;100.00;102608.56;2095149;28;46425;-70
2024/02/03 02:41:41;;;;;;;;;3.00;2.67;;;;;15.16;100.00;102604.09;2095266;28;46668;-69
2024/02/03 02:42:41;;;;;;;;;4.67;3.00;;;;;15.12;100.00;102605.91;2095373;28;46922;-71
2024/02/03 02:43:41;;;;;;;;;3.00;2.00;;;;;15.12;100.00;102605.00;2095280;28;46545;-70
2024/02/03 02:44:42;;;;;;;;;3.00;3.00;;;;;15.34;100.00;102606.53;2095309;28;46260;-72
2024/02/03 02:45:42;;;;;;;;;4.67;3.67;;;;;15.13;100.00;102612.16;2095310;28;46496;-70
2024/02/03 02:46:42;;;;;;;;;2.67;2.67;;;;;15.13;100.00;102609.47;2094715;28;46083;-70
2024/02/03 02:47:43;;;;;;;;;4.00;4.00;;;;;15.01;100.00;102606.00;2095059;28;46183;-69
2024/02/03 02:48:43;;;;;;;;;4.00;4.00;;;;;14.96;100.00;102613.16;2094918;28;46907;-68
2024/02/03 02:49:43;;;;;;;;;3.00;3.00;;;;;15.11;100.00;102605.91;2095100;28;46984;-68
2024/02/03 02:50:44;;;;;;;;;4.33;3.00;;;;;14.98;100.00;102608.69;2095150;28;46323;-69
2024/02/03 02:51:44;;;;;;;;;4.00;4.00;;;;;14.95;100.00;102608.72;2095638;28;46316;-69
2024/02/03 02:52:44;;;;;;;;;4.00;3.00;;;;;14.96;100.00;102604.25;2095351;28;46795;-69
2024/02/03 02:53:45;;;;;;;;;3.00;3.00;;;;;14.95;100.00;102603.38;2095635;28;45467;-69
2024/02/03 02:54:45;;;;;;;;;2.33;2.33;;;;;15.05;100.00;102604.19;2095334;28;46586;-67
2024/02/03 02:55:45;;;;;;;;;3.00;3.00;;;;;15.05;100.00;102600.63;2095604;28;46844;-68
2024/02/03 02:56:46;;;;;;;;;2.67;2.67;;;;;14.99;100.00;102599.81;2095291;28;46457;-69
2024/02/03 02:57:46;;;;;;;;;3.00;3.00;;;;;15.00;100.00;102604.25;2095631;28;46620;-68
2024/02/03 02:58:46;;;;;;;;;2.67;2.00;;;;;15.00;100.00;102606.03;2094858;28;47306;-69
2024/02/03 02:59:47;;;;;;;;;5.00;3.00;;;;;14.99;100.00;102607.81;2094994;28;46585;-69
2024/02/03 03:00:48;;;;;;;;;4.00;2.75;;;;;14.99;100.00;102602.47;2095163;28;46462;-69
2024/02/03 03:01:48;;;;;;;;;4.00;4.00;;;;;14.98;100.00;102599.78;2095476;28;46642;-69
2024/02/03 03:02:48;;;;;;;;;4.67;3.67;;;;;14.99;100.00;102607.81;2094484;28;46545;-70
2024/02/03 03:03:53;;;;;;;;;5.67;2.00;;;;;14.96;100.00;102602.47;2094314;28;46259;-69
2024/02/03 03:04:54;;;;;;;;;3.00;3.00;;;;;14.97;100.00;102604.25;2094554;28;46150;-69
2024/02/03 03:05:56;;;;;;;;;5.00;5.00;;;;;15.00;100.00;102606.03;2095184;28;46010;-69
2024/02/03 03:06:57;;;;;;;;;6.00;5.00;;;;;14.96;100.00;102605.16;2094864;28;46746;-68
2024/02/03 03:07:57;;;;;;;;;4.00;4.00;;;;;14.99;100.00;102601.56;2094952;28;46414;-68
2024/02/03 03:08:57;;;;;;;;;4.00;4.00;;;;;14.97;100.00;102598.91;2095039;28;46579;-70
2024/02/03 03:09:58;;;;;;;;;6.33;4.67;;;;;14.97;100.00;102596.22;2095018;28;46041;-70
2024/02/03 03:10:58;;;;;;;;;22.33;18.67;;;;;14.99;100.00;102593.53;2094958;28;45677;-70
2024/02/03 03:11:58;;;;;;;;;46.50;39.50;;;;;15.00;100.00;102596.22;2094989;28;45150;-70
2024/02/03 03:12:59;;;;;;;;;67.00;53.75;;;;;15.00;100.00;102590.88;2094871;28;46252;-70
2024/02/03 03:13:59;;;;;;;;;46.75;40.00;;;;;15.04;100.00;102590.84;2093671;28;46395;-69
2024/02/03 03:14:59;;;;;;;;;19.25;18.25;;;;;15.05;100.00;102590.81;2093680;28;46497;-69
2024/02/03 03:16:00;;;;;;;;;12.00;12.00;;;;;15.05;100.00;102585.47;2094780;28;45420;-69
2024/02/03 03:17:00;;;;;;;;;8.33;8.33;;;;;15.03;100.00;102584.59;2092625;28;45714;-69
2024/02/03 03:18:00;;;;;;;;;6.00;6.00;;;;;15.05;100.00;102588.16;2094572;28;46074;-69
2024/02/03 03:19:01;;;;;;;;;5.00;5.00;;;;;15.02;100.00;102583.72;2095174;28;46515;-68
2024/02/03 03:20:01;;;;;;;;;3.33;3.33;;;;;15.02;100.00;102585.50;2094968;28;47429;-69
2024/02/03 03:21:02;;;;;;;;;7.67;5.00;;;;;15.01;100.00;102589.97;2094578;28;46340;-68
2024/02/03 03:22:03;;;;;;;;;7.00;5.33;;;;;15.06;100.00;102584.56;2095258;28;46642;-69
2024/02/03 03:23:03;;;;;;;;;3.67;3.33;;;;;15.02;100.00;102588.19;2095178;28;47021;-69
2024/02/03 03:24:04;;;;;;;;;3.00;3.00;;;;;15.02;100.00;102578.38;2094951;28;45756;-69
2024/02/03 03:25:04;;;;;;;;;6.00;5.67;;;;;15.04;100.00;102575.69;2093968;28;46392;-70
2024/02/03 03:26:05;;;;;;;;;4.67;4.00;;;;;15.05;100.00;102585.47;2077269;28;46284;-68
2024/02/03 03:27:05;;;;;;;;;4.67;4.33;;;;;15.04;100.00;102581.03;2085477;28;46851;-69
2024/02/03 03:28:06;;;;;;;;;7.67;7.67;;;;;15.08;100.00;102582.75;2085770;28;46755;-70
2024/02/03 03:29:07;;;;;;;;;5.00;5.00;;;;;15.07;100.00;102589.00;2085929;28;45567;-69
2024/02/03 03:30:08;;;;;;;;;7.00;5.25;;;;;15.08;100.00;102582.75;2085367;28;46452;-69
2024/02/03 03:31:09;;;;;;;;;7.75;7.25;;;;;15.07;100.00;102583.66;2085325;28;46038;-70
2024/02/03 03:32:09;;;;;;;;;5.75;3.50;;;;;15.08;100.00;102584.53;2085342;28;46342;-70
2024/02/03 03:33:10;;;;;;;;;4.67;4.00;;;;;15.08;100.00;102580.09;2083207;28;46192;-71
2024/02/03 03:34:10;;;;;;;;;4.67;4.00;;;;;15.08;100.00;102585.44;2085290;28;46711;-70
2024/02/03 03:35:10;;;;;;;;;4.00;4.00;;;;;15.10;100.00;102582.72;2085485;28;46553;-69
2024/02/03 03:36:11;;;;;;;;;5.33;4.00;;;;;15.14;100.00;102590.72;2085364;28;46368;-70
2024/02/03 03:37:11;;;;;;;;;6.00;3.33;;;;;15.17;100.00;102584.47;2083971;28;46571;-69
2024/02/03 03:38:11;;;;;;;;;2.00;2.00;;;;;15.14;100.00;102581.81;2085562;28;46872;-70
2024/02/03 03:39:12;;;;;;;;;4.00;4.00;;;;;15.18;100.00;102588.91;2085702;28;46721;-70
2024/02/03 03:40:12;;;;;;;;;4.00;4.00;;;;;15.19;100.00;102591.56;2085503;28;46830;-71
2024/02/03 03:41:12;;;;;;;;;3.00;2.00;;;;;15.19;100.00;102591.56;2085638;28;46408;-69
2024/02/03 03:42:13;;;;;;;;;1.00;1.00;;;;;15.21;100.00;102594.19;2085683;28;46552;-69
2024/02/03 03:43:13;;;;;;;;;3.67;3.67;;;;;15.24;100.00;102588.81;2085952;28;46374;-70
2024/02/03 03:44:13;;;;;;;;;2.00;2.00;;;;;15.22;100.00;102588.84;2077833;28;45588;-70
2024/02/03 03:45:14;;;;;;;;;4.33;3.33;;;;;15.22;100.00;102590.63;2077536;28;46354;-70
2024/02/03 03:46:14;;;;;;;;;3.00;1.00;;;;;15.21;100.00;102586.19;2084245;28;46278;-70
2024/02/03 03:47:15;;;;;;;;;2.00;2.00;;;;;15.21;100.00;102591.53;2076843;28;47784;-70
2024/02/03 03:48:15;;;;;;;;;3.00;3.00;;;;;15.20;100.00;102595.13;2076536;28;46900;-69
2024/02/03 03:49:15;;;;;;;;;3.33;3.00;;;;;15.17;100.00;102588.00;2086081;28;45580;-71
2024/02/03 03:50:16;;;;;;;;;1.00;1.00;;;;;15.20;100.00;102592.44;2085202;28;46050;-69
2024/02/03 03:51:16;;;;;;;;;2.00;2.00;;;;;15.20;100.00;102601.34;2085508;28;46755;-70
2024/02/03 03:52:17;;;;;;;;;3.00;1.00;;;;;15.17;100.00;102596.03;2085409;28;45801;-70
2024/02/03 03:53:17;;;;;;;;;1.33;1.33;;;;;15.18;100.00;102591.56;2085341;28;46264;-71
2024/02/03 03:54:17;;;;;;;;;2.00;1.00;;;;;15.17;100.00;102593.38;2085500;28;45611;-72
2024/02/03 03:55:17;;;;;;;;;3.00;1.00;;;;;15.15;100.00;102602.31;2085564;28;46263;-69
2024/02/03 03:56:18;;;;;;;;;2.00;1.00;;;;;15.13;100.00;102598.78;2085487;28;46376;-69
2024/02/03 03:57:18;;;;;;;;;2.00;2.00;;;;;15.14;100.00;102597.88;2086224;28;46033;-70
2024/02/03 03:58:18;;;;;;;;;0.00;0.00;;;;;15.14;100.00;102593.41;2094778;28;46542;-70
2024/02/03 03:59:19;;;;;;;;;2.67;1.67;;;;;15.14;100.00;102597.88;2094643;28;46540;-69
2024/02/03 04:00:20;;;;;;;;;0.00;0.00;;;;;15.13;100.00;102593.41;2094839;28;46184;-70
2024/02/03 04:01:20;;;;;;;;;2.00;2.00;;;;;15.15;100.00;102588.94;2084789;28;46422;-70
2024/02/03 04:02:20;;;;;;;;;1.00;1.00;;;;;15.15;100.00;102589.81;2085309;28;46570;-69
2024/02/03 04:03:21;;;;;;;;;4.33;2.00;;;;;15.16;100.00;102582.69;2092980;28;45543;-69
2024/02/03 04:04:21;;;;;;;;;1.00;1.00;;;;;15.17;100.00;102584.47;2094352;28;46251;-68
2024/02/03 04:05:21;;;;;;;;;2.00;2.00;;;;;15.17;100.00;102588.00;2094122;28;46300;-69
2024/02/03 04:06:22;;;;;;;;;3.00;3.00;;;;;15.18;100.00;102580.88;2094267;28;46245;-70
2024/02/03 04:07:22;;;;;;;;;1.33;1.00;;;;;15.19;100.00;102586.19;2093671;28;46213;-69
2024/02/03 04:08:22;;;;;;;;;2.00;1.00;;;;;15.18;100.00;102581.75;2094339;28;46087;-68
2024/02/03 04:09:22;;;;;;;;;1.00;1.00;;;;;15.20;100.00;102587.09;2094669;28;46820;-69
2024/02/03 04:10:23;;;;;;;;;1.00;1.00;;;;;15.19;100.00;102585.31;2095132;28;46690;-70
2024/02/03 04:11:23;;;;;;;;;2.33;2.00;;;;;15.19;100.00;102585.31;2094405;28;46725;-69
2024/02/03 04:12:24;;;;;;;;;3.00;3.00;;;;;15.19;100.00;102582.63;2094426;28;46624;-69
2024/02/03 04:13:24;;;;;;;;;1.00;1.00;;;;;15.19;100.00;102585.31;2094759;28;46601;-68
2024/02/03 04:14:24;;;;;;;;;3.67;2.00;;;;;15.19;100.00;102586.19;2094847;28;46551;-68
2024/02/03 04:15:25;;;;;;;;;1.00;1.00;;;;;15.19;100.00;102579.97;2095119;28;45959;-68
2024/02/03 04:16:25;;;;;;;;;2.33;2.33;;;;;15.21;100.00;102579.03;2095950;28;46347;-69
2024/02/03 04:17:25;;;;;;;;;1.00;1.00;;;;;15.20;100.00;102577.28;2096160;28;46286;-70
2024/02/03 04:18:26;;;;;;;;;1.00;1.00;;;;;15.21;100.00;102580.84;2096297;28;45076;-70
2024/02/03 04:19:26;;;;;;;;;2.00;1.00;;;;;15.20;100.00;102579.06;2095226;28;46203;-69
2024/02/03 04:20:26;;;;;;;;;1.00;1.00;;;;;15.20;100.00;102576.38;2095922;28;45082;-69
2024/02/03 04:21:28;;;;;;;;;1.00;1.00;;;;;15.21;100.00;102583.50;2096044;28;45901;-68
2024/02/03 04:22:28;;;;;;;;;1.00;1.00;;;;;15.22;100.00;102582.59;2096000;28;46688;-69
2024/02/03 04:23:28;;;;;;;;;3.67;3.00;;;;;15.20;100.00;102577.28;2096107;28;46221;-69
2024/02/03 04:24:29;;;;;;;;;3.00;2.00;;;;;15.21;100.00;102573.69;2095327;28;45671;-69
2024/02/03 04:25:29;;;;;;;;;2.67;1.33;;;;;15.19;100.00;102567.47;2096312;28;46329;-69
2024/02/03 04:26:30;;;;;;;;;3.00;1.33;;;;;15.20;100.00;102574.59;2095749;28;46720;-69
2024/02/03 04:27:30;;;;;;;;;2.00;1.00;;;;;15.20;100.00;102582.63;2095975;28;46576;-69
2024/02/03 04:28:30;;;;;;;;;2.00;2.00;;;;;15.20;100.00;102589.75;2095967;28;46363;-70
2024/02/03 04:29:31;;;;;;;;;1.00;1.00;;;;;15.20;100.00;102582.63;2095987;28;46799;-70
2024/02/03 04:30:31;;;;;;;;;1.00;1.00;;;;;15.36;100.00;102583.31;2095994;28;46779;-70
2024/02/03 04:31:31;;;;;;;;;1.00;1.00;;;;;15.42;100.00;102583.28;2096249;28;46615;-70
2024/02/03 04:32:32;;;;;;;;;3.00;2.00;;;;;15.32;100.00;102581.59;2095245;28;46654;-69
2024/02/03 04:33:32;;;;;;;;;1.33;1.33;;;;;15.45;100.00;102580.56;2094581;28;46362;-69
2024/02/03 04:34:33;;;;;;;;;1.00;1.00;;;;;15.48;100.00;102575.16;2094886;28;46440;-69
2024/02/03 04:35:34;;;;;;;;;3.00;3.00;;;;;15.51;100.00;102583.16;2096534;28;46505;-68
2024/02/03 04:36:34;;;;;;;;;1.67;1.67;;;;;15.51;100.00;102574.25;2095634;28;45806;-71
2024/02/03 04:37:34;;;;;;;;;1.00;1.00;;;;;15.53;100.00;102578.69;2095556;28;46595;-69
2024/02/03 04:38:35;;;;;;;;;1.33;1.33;;;;;15.50;100.00;102577.81;2096101;28;46163;-69